Time;durP1;ratioP1;P1;durP2;ratioP2;P2;SDS_P1;SDS_P2;PMS_P1;PMS_P2;Temp;Humidity;BMP_temperature;BMP_pressure;BME280_temperature;BME280_humidity;BME280_pressure;Samples;Min_cycle;Max_cycle;Signal;HPM_P1;HPM_P2
2021/07/25 00:00:06;;;;;;;103.90;46.97;;;;;;;16.29;100.00;101010.34;4985761;28;20101;-78
2021/07/25 00:02:34;;;;;;;87.88;42.75;;;;;;;16.23;100.00;101004.34;4983008;28;20153;-79
2021/07/25 00:05:07;;;;;;;91.05;45.55;;;;;;;16.18;100.00;101003.72;4987668;28;20128;-77
2021/07/25 00:07:36;;;;;;;91.32;46.97;;;;;;;16.18;100.00;100994.78;4984677;28;20098;-79
2021/07/25 00:10:05;;;;;;;96.07;44.88;;;;;;;16.17;100.00;100999.28;4985570;28;20050;-79
2021/07/25 00:12:33;;;;;;;94.90;46.22;;;;;;;16.20;100.00;101003.63;4986172;28;20066;-79
2021/07/25 00:15:02;;;;;;;99.68;46.22;;;;;;;16.20;100.00;101006.31;4985353;28;20096;-79
2021/07/25 00:17:30;;;;;;;103.68;47.17;;;;;;;16.18;100.00;101001.03;4987883;28;20062;-79
2021/07/25 00:19:57;;;;;;;93.00;42.70;;;;;;;16.16;100.00;101002.06;4983452;28;20058;-79
2021/07/25 00:22:25;;;;;;;101.13;48.35;;;;;;;16.15;100.00;101003.00;4986290;28;20433;-80
2021/07/25 00:25:07;;;;;;;90.68;44.13;;;;;;;16.18;100.00;100998.31;4987614;28;20073;-79
2021/07/25 00:27:38;;;;;;;99.85;47.33;;;;;;;16.21;100.00;101008.09;4984170;28;20066;-78
2021/07/25 00:30:09;;;;;;;101.97;47.83;;;;;;;16.24;100.00;101002.50;4984999;28;20366;-79
2021/07/25 00:32:37;;;;;;;103.18;47.42;;;;;;;16.25;100.00;101002.44;4985161;28;20067;-78
2021/07/25 00:35:06;;;;;;;105.70;50.22;;;;;;;16.27;100.00;101007.72;4987061;28;20066;-79
2021/07/25 00:37:34;;;;;;;104.50;47.72;;;;;;;16.28;100.00;100995.13;4984630;28;20088;-74
2021/07/25 00:40:04;;;;;;;111.38;48.53;;;;;;;16.33;100.00;100999.34;4983194;28;20057;-73
2021/07/25 00:42:38;;;;;;;102.82;48.22;;;;;;;16.39;100.00;101003.50;4985293;28;20066;-74
2021/07/25 00:45:07;;;;;;;109.82;50.72;;;;;;;16.39;100.00;101003.50;4982542;28;20047;-74
2021/07/25 00:47:38;;;;;;;99.97;48.03;;;;;;;16.39;100.00;100998.13;4986317;28;20117;-74
2021/07/25 00:50:08;;;;;;;107.82;48.05;;;;;;;16.40;100.00;100989.13;4981004;28;20465;-73
2021/07/25 00:52:37;;;;;;;103.20;47.65;;;;;;;16.41;100.00;100989.03;4983294;28;20077;-74
2021/07/25 00:55:06;;;;;;;99.18;50.13;;;;;;;16.42;100.00;100979.13;4984162;28;20093;-73
2021/07/25 00:57:34;;;;;;;96.80;46.20;;;;;;;16.43;100.00;100988.94;4981518;28;20117;-73
2021/07/25 01:00:02;;;;;;;98.78;48.05;;;;;;;16.41;100.00;100991.72;4981404;28;20062;-74
2021/07/25 01:02:38;;;;;;;101.00;46.40;;;;;;;16.42;100.00;100995.28;4983082;28;20528;-73
2021/07/25 01:05:12;;;;;;;96.90;46.85;;;;;;;16.39;100.00;100988.22;4981334;28;20062;-74
2021/07/25 01:07:48;;;;;;;96.88;44.60;;;;;;;16.39;100.00;100987.34;4982010;28;20058;-73
2021/07/25 01:10:20;;;;;;;103.43;48.47;;;;;;;16.42;100.00;100988.06;4978626;28;20183;-73
2021/07/25 01:12:56;;;;;;;92.97;44.83;;;;;;;16.43;100.00;100986.25;4984258;28;20432;-73
2021/07/25 01:15:27;;;;;;;87.38;42.90;;;;;;;16.41;100.00;100988.13;4980194;28;20069;-72
2021/07/25 01:17:54;;;;;;;101.90;47.80;;;;;;;16.40;100.00;100975.66;4981391;28;20157;-73
2021/07/25 01:20:24;;;;;;;105.07;47.35;;;;;;;16.38;100.00;100970.34;4979173;28;20062;-73
2021/07/25 01:22:54;;;;;;;93.07;48.00;;;;;;;16.39;100.00;100971.19;4982072;28;20089;-73
2021/07/25 01:25:24;;;;;;;98.85;46.53;;;;;;;16.41;100.00;100967.50;4981492;28;20063;-72
2021/07/25 01:27:57;;;;;;;102.15;46.90;;;;;;;16.44;100.00;100967.28;4983328;28;20062;-73
2021/07/25 01:30:27;;;;;;;107.53;50.77;;;;;;;16.45;100.00;100970.88;4982617;28;20062;-73
2021/07/25 01:32:58;;;;;;;105.78;49.50;;;;;;;16.47;100.00;100968.09;4980954;28;20343;-73
2021/07/25 01:35:28;;;;;;;97.40;44.47;;;;;;;16.44;100.00;100970.00;4984415;28;20300;-73
2021/07/25 01:37:57;;;;;;;94.50;45.05;;;;;;;16.46;100.00;100975.28;4984717;28;20103;-73
2021/07/25 01:40:26;;;;;;;90.00;44.53;;;;;;;16.39;100.00;100972.06;4981557;28;20482;-73
2021/07/25 01:42:55;;;;;;;92.97;45.33;;;;;;;16.38;100.00;100973.03;4985272;28;20781;-78
2021/07/25 01:45:23;;;;;;;100.35;47.20;;;;;;;16.39;100.00;100971.19;4985895;28;20117;-76
2021/07/25 01:47:51;;;;;;;94.43;47.42;;;;;;;16.33;100.00;100967.03;4983200;28;20117;-77
2021/07/25 01:50:18;;;;;;;99.15;45.80;;;;;;;16.38;100.00;100966.78;4985869;28;20098;-77
2021/07/25 01:52:48;;;;;;;99.30;48.25;;;;;;;16.35;100.00;100966.94;4983295;28;20077;-73
2021/07/25 01:55:16;;;;;;;95.10;46.00;;;;;;;16.36;100.00;100963.28;4983174;28;20062;-73
2021/07/25 01:57:44;;;;;;;104.32;48.90;;;;;;;16.36;100.00;100963.28;4983030;28;20070;-73
2021/07/25 02:00:12;;;;;;;95.50;45.35;;;;;;;16.37;100.00;100963.22;4980995;28;20626;-72
2021/07/25 02:02:40;;;;;;;94.70;46.83;;;;;;;16.33;100.00;100964.34;4981466;28;20102;-72
2021/07/25 02:05:08;;;;;;;97.45;47.15;;;;;;;16.32;100.00;100967.97;4981112;28;20833;-73
2021/07/25 02:07:36;;;;;;;96.40;43.92;;;;;;;16.31;100.00;100957.28;4977642;28;20153;-73
2021/07/25 02:10:07;;;;;;;91.40;46.95;;;;;;;16.29;100.00;100956.50;4980244;28;20062;-73
2021/07/25 02:12:34;;;;;;;87.22;42.25;;;;;;;16.29;100.00;100959.19;4978589;28;20183;-73
2021/07/25 02:15:02;;;;;;;87.20;42.58;;;;;;;16.27;100.00;100950.34;4980097;28;20108;-72
2021/07/25 02:17:30;;;;;;;99.47;44.97;;;;;;;16.28;100.00;100946.66;4977513;28;20457;-73
2021/07/25 02:19:58;;;;;;;90.18;42.92;;;;;;;16.32;100.00;100946.44;4978844;28;20652;-73
2021/07/25 02:22:25;;;;;;;92.97;45.55;;;;;;;16.29;100.00;100951.97;4978770;28;20145;-72
2021/07/25 02:24:53;;;;;;;87.68;42.10;;;;;;;16.27;100.00;100956.56;4978952;28;20070;-72
2021/07/25 02:27:22;;;;;;;80.40;42.17;;;;;;;16.21;100.00;100949.72;4978755;28;20070;-73
2021/07/25 02:29:50;;;;;;;87.18;42.13;;;;;;;16.21;100.00;100951.53;4979034;28;20098;-72
2021/07/25 02:32:17;;;;;;;77.93;40.90;;;;;;;16.20;100.00;100941.72;4980043;28;20314;-73
2021/07/25 02:34:45;;;;;;;80.50;40.35;;;;;;;16.18;100.00;100940.94;4978763;28;20063;-73
2021/07/25 02:37:14;;;;;;;89.38;43.08;;;;;;;16.18;100.00;100936.41;4980566;28;20070;-73
2021/07/25 02:39:42;;;;;;;85.35;43.30;;;;;;;16.18;100.00;100930.16;4978971;28;20105;-73
2021/07/25 02:42:10;;;;;;;84.85;43.40;;;;;;;16.17;100.00;100934.66;4977768;28;20449;-73
2021/07/25 02:44:39;;;;;;;82.72;40.97;;;;;;;16.15;100.00;100925.81;4980668;28;20098;-73
2021/07/25 02:47:06;;;;;;;96.45;45.78;;;;;;;16.21;100.00;100927.31;4979019;28;20081;-73
2021/07/25 02:49:34;;;;;;;93.18;44.47;;;;;;;16.18;100.00;100925.66;4978694;28;20435;-73
2021/07/25 02:52:02;;;;;;;81.38;43.28;;;;;;;16.18;100.00;100930.16;4978418;28;20124;-73
2021/07/25 02:54:30;;;;;;;80.82;40.33;;;;;;;16.20;100.00;100928.25;4979453;28;20062;-73
2021/07/25 02:56:58;;;;;;;80.07;41.63;;;;;;;16.20;100.00;100934.50;4981041;28;20136;-73
2021/07/25 02:59:25;;;;;;;88.10;42.05;;;;;;;16.25;100.00;100939.66;4975984;28;20145;-73
2021/07/25 03:01:55;;;;;;;88.47;44.88;;;;;;;16.27;100.00;100940.44;4977397;28;20062;-73
2021/07/25 03:04:22;;;;;;;98.53;44.33;;;;;;;16.29;100.00;100943.91;4980603;28;20058;-73
2021/07/25 03:06:50;;;;;;;89.82;43.97;;;;;;;16.27;100.00;100940.44;4976907;28;20145;-73
2021/07/25 03:09:18;;;;;;;85.28;42.58;;;;;;;16.27;100.00;100937.72;4981554;28;20515;-73
2021/07/25 03:11:46;;;;;;;84.22;39.90;;;;;;;16.24;100.00;100933.41;4978184;28;20062;-73
2021/07/25 03:14:13;;;;;;;85.93;40.90;;;;;;;16.24;100.00;100936.09;4980075;28;20356;-72
2021/07/25 03:16:41;;;;;;;82.82;40.20;;;;;;;16.25;100.00;100929.75;4980411;28;20070;-73
2021/07/25 03:19:10;;;;;;;77.43;37.72;;;;;;;16.25;100.00;100935.13;4977641;28;20144;-73
2021/07/25 03:21:39;;;;;;;65.43;32.95;;;;;;;16.30;100.00;100937.56;4981293;28;20637;-73
2021/07/25 03:24:06;;;;;;;63.97;33.45;;;;;;;16.27;100.00;100936.88;4977260;28;20054;-73
2021/07/25 03:26:34;;;;;;;67.95;34.25;;;;;;;16.27;100.00;100931.50;4980523;28;20148;-73
2021/07/25 03:29:02;;;;;;;62.92;33.30;;;;;;;16.24;100.00;100930.72;4978839;28;20062;-73
2021/07/25 03:31:30;;;;;;;58.55;30.17;;;;;;;16.24;100.00;100932.50;4977095;28;20062;-73
2021/07/25 03:33:59;;;;;;;48.40;26.30;;;;;;;16.24;100.00;100925.31;4979301;28;20065;-73
2021/07/25 03:36:28;;;;;;;52.58;27.83;;;;;;;16.21;100.00;100927.31;4979497;28;20097;-73
2021/07/25 03:38:56;;;;;;;50.35;26.67;;;;;;;16.19;100.00;100924.72;4978569;28;20098;-72
2021/07/25 03:41:24;;;;;;;48.08;24.40;;;;;;;16.16;100.00;100924.00;4980711;28;20161;-73
2021/07/25 03:43:51;;;;;;;48.72;24.80;;;;;;;16.15;100.00;100922.25;4978225;28;20066;-73
2021/07/25 03:46:19;;;;;;;43.72;23.35;;;;;;;16.15;100.00;100916.88;4978878;28;20062;-73
2021/07/25 03:48:47;;;;;;;50.10;24.45;;;;;;;16.14;100.00;100920.50;4977868;28;20349;-73
2021/07/25 03:51:15;;;;;;;44.10;21.15;;;;;;;16.13;100.00;100910.72;4978953;28;20098;-73
2021/07/25 03:53:44;;;;;;;40.78;20.75;;;;;;;16.09;100.00;100911.81;4980183;28;20290;-73
2021/07/25 03:56:11;;;;;;;42.55;22.10;;;;;;;16.07;100.00;100903.81;4976946;28;20366;-73
2021/07/25 03:58:39;;;;;;;40.30;20.60;;;;;;;16.06;100.00;100902.09;4980048;28;20092;-73
2021/07/25 04:01:07;;;;;;;41.72;20.48;;;;;;;16.04;100.00;100906.69;4977242;28;20191;-73
2021/07/25 04:03:34;;;;;;;39.78;20.23;;;;;;;16.01;100.00;100896.09;4978967;28;20058;-73
2021/07/25 04:06:02;;;;;;;39.78;18.65;;;;;;;16.00;100.00;100899.72;4978629;28;20066;-73
2021/07/25 04:08:30;;;;;;;35.92;19.77;;;;;;;16.01;100.00;100896.94;4976458;28;20101;-73
2021/07/25 04:10:59;;;;;;;36.05;20.33;;;;;;;16.03;100.00;100899.56;4980766;28;20453;-74
2021/07/25 04:13:27;;;;;;;36.72;19.67;;;;;;;16.03;100.00;100903.13;4976369;28;20058;-73
2021/07/25 04:15:55;;;;;;;36.40;20.77;;;;;;;16.06;100.00;100905.66;4979883;28;20066;-73
2021/07/25 04:18:23;;;;;;;41.53;21.13;;;;;;;16.09;100.00;100909.13;4979079;28;20066;-72
2021/07/25 04:20:50;;;;;;;38.50;20.80;;;;;;;16.05;100.00;100903.03;4976750;28;20134;-73
2021/07/25 04:23:18;;;;;;;35.50;18.75;;;;;;;16.03;100.00;100907.63;4983064;28;20610;-73
2021/07/25 04:25:46;;;;;;;36.00;19.23;;;;;;;16.01;100.00;100909.53;4979065;28;20101;-73
2021/07/25 04:28:16;;;;;;;35.17;20.27;;;;;;;16.04;100.00;100907.56;4983093;28;20085;-73
2021/07/25 04:30:44;;;;;;;32.65;17.55;;;;;;;16.05;100.00;100908.41;4982219;28;20124;-73
2021/07/25 04:33:14;;;;;;;45.83;23.33;;;;;;;16.04;100.00;100894.09;4979041;28;20432;-73
2021/07/25 04:35:43;;;;;;;42.58;20.95;;;;;;;16.09;100.00;100893.84;4985664;28;20165;-73
2021/07/25 04:38:12;;;;;;;42.55;21.73;;;;;;;16.09;100.00;100896.56;4978308;28;20500;-72
2021/07/25 04:40:44;;;;;;;40.38;20.00;;;;;;;16.13;100.00;100900.81;4981729;28;20509;-73
2021/07/25 04:43:17;;;;;;;37.08;19.73;;;;;;;16.15;100.00;100898.03;4980070;28;20086;-73
2021/07/25 04:45:55;;;;;;;35.80;18.15;;;;;;;16.18;100.00;100908.63;4981381;28;20106;-73
2021/07/25 04:48:30;;;;;;;33.67;18.00;;;;;;;16.19;100.00;100913.03;4979357;28;20066;-73
2021/07/25 04:51:07;;;;;;;31.67;17.80;;;;;;;16.21;100.00;100920.09;4978184;28;20126;-72
2021/07/25 04:53:38;;;;;;;33.58;18.70;;;;;;;16.24;100.00;100916.34;4980905;28;20097;-73
2021/07/25 04:56:08;;;;;;;34.10;17.65;;;;;;;16.31;100.00;100916.88;4981183;28;20074;-72
2021/07/25 04:58:45;;;;;;;39.22;19.25;;;;;;;16.32;100.00;100907.88;4980506;28;20066;-72
2021/07/25 05:01:16;;;;;;;41.38;20.17;;;;;;;16.34;100.00;100906.81;4980766;28;20141;-72
2021/07/25 05:03:45;;;;;;;35.88;18.05;;;;;;;16.39;100.00;100909.28;4979980;28;20355;-72
2021/07/25 05:06:14;;;;;;;33.72;17.75;;;;;;;16.41;100.00;100905.56;4983793;28;20129;-73
2021/07/25 05:08:43;;;;;;;31.42;16.70;;;;;;;16.43;100.00;100911.72;4978925;28;20090;-73
2021/07/25 05:11:17;;;;;;;32.90;16.75;;;;;;;16.47;100.00;100911.56;4983351;28;20070;-73
2021/07/25 05:13:48;;;;;;;34.35;17.08;;;;;;;16.49;100.00;100915.03;4980408;28;20046;-72
2021/07/25 05:16:27;;;;;;;33.78;16.73;;;;;;;16.50;100.00;100917.63;4980997;28;20322;-73
2021/07/25 05:19:16;;;;;;;31.92;15.10;;;;;;;16.55;100.00;100920.03;4981244;28;20072;-72
2021/07/25 05:21:50;;;;;;;31.15;14.90;;;;;;;16.61;100.00;100919.72;4980185;28;20070;-72
2021/07/25 05:24:18;;;;;;;;;;;;;;;16.62;100.00;100925.03;4984801;28;20105;-73
2021/07/25 05:26:48;;;;;;;31.08;14.43;;;;;;;16.70;100.00;100921.03;4978655;28;19996;-72
2021/07/25 05:29:19;;;;;;;29.15;13.57;;;;;;;16.77;100.00;100927.78;4982531;28;20058;-73
2021/07/25 05:31:49;;;;;;;29.27;15.73;;;;;;;16.84;100.00;100929.25;4978600;28;20078;-72
2021/07/25 05:34:17;;;;;;;34.33;16.63;;;;;;;16.88;100.00;100922.72;4980338;28;20117;-77
2021/07/25 05:36:45;;;;;;;25.35;13.07;;;;;;;16.93;100.00;100915.22;4981554;28;20140;-76
2021/07/25 05:39:12;;;;;;;23.00;12.75;;;;;;;17.06;100.00;100917.22;4977540;28;20097;-76
2021/07/25 05:41:40;;;;;;;27.73;13.43;;;;;;;17.20;100.00;100919.09;4981314;28;20077;-77
2021/07/25 05:44:08;;;;;;;23.65;12.32;;;;;;;17.21;100.00;100913.63;4980398;28;20120;-76
2021/07/25 05:46:37;;;;;;;23.83;12.75;;;;;;;17.23;100.00;100918.91;4978593;28;20445;-76
2021/07/25 05:49:04;;;;;;;24.92;12.82;;;;;;;17.57;100.00;100917.81;4981672;28;20073;-76
2021/07/25 05:51:32;;;;;;;26.60;13.90;;;;;;;17.89;100.00;100918.59;4978592;28;21558;-76
2021/07/25 05:54:00;;;;;;;30.05;14.10;;;;;;;18.22;99.82;100919.28;4981073;28;20515;-76
2021/07/25 05:56:28;;;;;;;28.67;15.23;;;;;;;18.34;98.64;100914.91;4977877;28;20180;-72
2021/07/25 05:58:55;;;;;;;27.63;13.88;;;;;;;18.02;98.06;100918.66;4981326;28;20054;-72
2021/07/25 06:01:23;;;;;;;26.83;13.48;;;;;;;18.04;99.80;100913.19;4982853;28;20066;-72
2021/07/25 06:03:52;;;;;;;26.17;13.88;;;;;;;17.97;99.49;100922.63;4977038;28;20086;-72
2021/07/25 06:06:20;;;;;;;27.00;15.10;;;;;;;17.95;99.59;100933.53;4980520;28;20089;-71
2021/07/25 06:08:48;;;;;;;28.20;14.75;;;;;;;17.96;99.80;100934.38;4979750;28;20070;-71
2021/07/25 06:11:21;;;;;;;26.50;15.07;;;;;;;18.39;98.80;100924.47;4979677;28;20095;-72
2021/07/25 06:13:49;;;;;;;29.45;15.10;;;;;;;18.89;97.73;100930.31;4981021;28;20089;-71
2021/07/25 06:16:17;;;;;;;30.75;16.17;;;;;;;19.21;95.23;100927.31;4977061;28;20460;-71
2021/07/25 06:18:47;;;;;;;34.63;16.05;;;;;;;19.09;94.86;100930.84;4978150;28;20054;-71
2021/07/25 06:21:16;;;;;;;30.05;15.15;;;;;;;18.92;93.97;100923.84;4979334;28;20425;-71
2021/07/25 06:23:44;;;;;;;31.85;16.13;;;;;;;18.82;94.25;100932.53;4977851;28;20085;-71
2021/07/25 06:26:12;;;;;;;31.00;14.70;;;;;;;18.62;95.00;100930.22;4984667;28;20070;-71
2021/07/25 06:28:39;;;;;;;28.42;14.05;;;;;;;18.60;95.19;100924.91;4977046;28;20070;-70
2021/07/25 06:31:07;;;;;;;28.08;14.32;;;;;;;18.70;95.99;100922.50;4981757;28;20326;-71
2021/07/25 06:33:35;;;;;;;29.92;13.85;;;;;;;18.90;96.52;100921.22;4978597;28;20065;-71
2021/07/25 06:36:04;;;;;;;28.50;13.90;;;;;;;19.03;95.76;100913.16;4978695;28;20120;-71
2021/07/25 06:38:33;;;;;;;27.95;15.43;;;;;;;19.57;91.90;100917.66;4981360;28;20069;-70
2021/07/25 06:41:01;;;;;;;30.50;15.65;;;;;;;20.23;90.98;100923.06;4976613;28;20065;-71
2021/07/25 06:43:29;;;;;;;27.40;15.50;;;;;;;20.57;89.04;100916.06;4980685;28;20066;-70
2021/07/25 06:45:56;;;;;;;24.42;13.40;;;;;;;21.01;88.15;100914.66;4977205;28;20112;-70
2021/07/25 06:48:25;;;;;;;28.10;15.82;;;;;;;20.81;85.57;100921.53;4980001;28;20070;-70
2021/07/25 06:50:55;;;;;;;26.98;14.75;;;;;;;21.20;84.56;100914.13;4981531;28;20137;-73
2021/07/25 06:53:24;;;;;;;25.00;14.70;;;;;;;21.40;83.79;100911.72;4975587;28;20142;-74
2021/07/25 06:55:55;;;;;;;25.15;13.50;;;;;;;21.53;82.58;100914.41;4984302;28;20387;-74
2021/07/25 06:58:23;;;;;;;28.15;14.25;;;;;;;21.34;82.50;100921.22;4976764;28;20144;-73
2021/07/25 07:00:51;;;;;;;27.98;14.70;;;;;;;21.50;82.43;100909.22;4980506;28;20554;-74
2021/07/25 07:03:20;;;;;;;24.17;13.70;;;;;;;21.75;82.65;100911.75;4982877;28;20072;-73
2021/07/25 07:05:49;;;;;;;26.50;13.60;;;;;;;22.12;81.86;100910.72;4980079;28;20472;-73
2021/07/25 07:08:17;;;;;;;28.15;14.35;;;;;;;22.13;79.01;100905.13;4980740;28;20434;-73
2021/07/25 07:10:47;;;;;;;28.17;14.82;;;;;;;22.58;78.49;100901.59;4976181;28;20104;-73
2021/07/25 07:13:18;;;;;;;25.58;13.50;;;;;;;22.80;77.68;100899.81;4979872;28;20116;-73
2021/07/25 07:15:48;;;;;;;25.15;13.95;;;;;;;22.83;76.57;100907.72;4982356;28;20081;-74
2021/07/25 07:18:16;;;;;;;23.83;12.73;;;;;;;22.84;74.46;100909.47;4975828;28;20066;-73
2021/07/25 07:20:44;;;;;;;25.10;13.18;;;;;;;22.79;75.38;100909.81;4982365;28;20066;-69
2021/07/25 07:23:14;;;;;;;26.98;14.75;;;;;;;23.18;74.76;100904.81;4978456;28;20503;-69
2021/07/25 07:25:44;;;;;;;25.85;13.38;;;;;;;23.28;73.77;100904.91;4980203;28;20074;-70
2021/07/25 07:28:12;;;;;;;25.23;14.43;;;;;;;23.49;72.96;100913.94;4980589;28;20587;-70
2021/07/25 07:30:42;;;;;;;23.85;12.05;;;;;;;23.91;71.98;100915.00;4979498;28;20062;-69
2021/07/25 07:33:11;;;;;;;25.10;13.20;;;;;;;23.77;71.81;100916.13;4979801;28;20066;-70
2021/07/25 07:35:40;;;;;;;23.00;12.63;;;;;;;24.22;71.51;100919.47;4978470;28;20116;-70
2021/07/25 07:38:21;;;;;;;22.38;12.63;;;;;;;24.18;70.58;100918.00;4980106;28;20070;-70
2021/07/25 07:40:49;;;;;;;23.60;13.15;;;;;;;24.39;71.49;100914.38;4977829;28;20156;-70
2021/07/25 07:43:18;;;;;;;26.25;13.02;;;;;;;24.66;69.50;100907.47;4978260;28;20618;-70
2021/07/25 07:45:47;;;;;;;27.60;14.50;;;;;;;24.47;69.09;100910.94;4982900;28;20329;-74
2021/07/25 07:48:15;;;;;;;24.45;14.38;;;;;;;24.35;67.59;100912.94;4974800;28;20046;-73
2021/07/25 07:50:43;;;;;;;27.20;14.23;;;;;;;24.33;68.00;100921.25;4979107;28;20073;-74
2021/07/25 07:53:11;;;;;;;25.08;14.27;;;;;;;24.30;67.52;100916.06;4978145;28;20069;-74
2021/07/25 07:55:39;;;;;;;23.35;13.57;;;;;;;25.23;67.32;100916.75;4976309;28;20093;-74
2021/07/25 07:58:07;;;;;;;25.20;13.77;;;;;;;25.80;63.73;100914.19;4981321;28;20379;-74
2021/07/25 08:00:35;;;;;;;23.05;12.68;;;;;;;26.25;64.26;100912.63;4981296;28;20148;-74
2021/07/25 08:03:06;;;;;;;25.65;14.13;;;;;;;25.91;61.72;100910.41;4981719;28;20161;-74
2021/07/25 08:05:34;;;;;;;27.13;14.70;;;;;;;25.86;60.66;100913.59;4982613;28;20066;-74
2021/07/25 08:08:03;;;;;;;25.42;14.30;;;;;;;25.86;61.65;100910.88;4982341;28;20066;-74
2021/07/25 08:10:30;;;;;;;27.35;15.65;;;;;;;25.85;61.93;100908.28;4982920;28;20104;-74
2021/07/25 08:12:58;;;;;;;26.17;14.52;;;;;;;25.97;62.97;100915.31;4978316;28;20156;-74
2021/07/25 08:15:26;;;;;;;27.17;14.93;;;;;;;25.75;61.83;100916.47;4983196;28;20302;-74
2021/07/25 08:17:53;;;;;;;27.48;14.82;;;;;;;25.75;62.39;100913.75;4979379;28;20062;-75
2021/07/25 08:20:23;;;;;;;22.52;12.98;;;;;;;25.93;60.45;100919.31;4981691;28;20211;-74
2021/07/25 08:22:51;;;;;;;21.85;13.75;;;;;;;25.96;62.20;100924.53;4983330;28;20144;-75
2021/07/25 08:25:19;;;;;;;21.65;12.90;;;;;;;25.85;62.12;100922.78;4980427;28;20068;-75
2021/07/25 08:27:46;;;;;;;26.83;14.45;;;;;;;25.57;62.38;100919.06;4981189;28;20473;-74
2021/07/25 08:30:14;;;;;;;23.45;14.90;;;;;;;25.34;63.31;100919.38;4980270;28;20094;-75
2021/07/25 08:32:42;;;;;;;25.23;14.98;;;;;;;25.40;63.38;100922.53;4980084;28;20062;-75
2021/07/25 08:35:12;;;;;;;22.73;13.30;;;;;;;25.34;64.29;100924.84;4981527;28;20438;-74
2021/07/25 08:37:41;;;;;;;24.65;14.23;;;;;;;25.34;63.65;100927.56;4978060;28;20398;-75
2021/07/25 08:40:13;;;;;;;24.42;14.23;;;;;;;24.88;64.46;100933.66;4981918;28;20464;-75
2021/07/25 08:42:49;;;;;;;27.37;15.43;;;;;;;24.83;66.75;100934.09;4977387;28;20071;-75
2021/07/25 08:45:24;;;;;;;24.70;14.02;;;;;;;25.17;64.74;100933.72;4980356;28;20327;-76
2021/07/25 08:47:54;;;;;;;23.00;14.05;;;;;;;24.69;65.78;100934.44;4979976;28;20077;-74
2021/07/25 08:50:27;;;;;;;27.65;15.63;;;;;;;24.68;66.91;100935.47;4981322;28;20450;-74
2021/07/25 08:52:56;;;;;;;24.08;14.77;;;;;;;24.60;68.15;100941.59;4979961;28;20074;-73
2021/07/25 08:55:24;;;;;;;25.23;12.75;;;;;;;24.60;66.35;100942.50;4976452;28;20089;-72
2021/07/25 08:57:52;;;;;;;27.15;15.15;;;;;;;24.21;67.95;100936.84;4979918;28;20476;-73
2021/07/25 09:00:22;;;;;;;21.08;13.48;;;;;;;24.50;67.54;100943.41;4979891;28;20065;-73
2021/07/25 09:02:51;;;;;;;25.55;13.43;;;;;;;24.76;67.31;100943.84;4980268;28;20062;-73
2021/07/25 09:05:19;;;;;;;23.98;12.93;;;;;;;25.00;65.33;100937.16;4983938;28;20058;-73
2021/07/25 09:07:51;;;;;;;25.92;12.98;;;;;;;24.66;65.18;100938.34;4983522;28;20460;-72
2021/07/25 09:10:23;;;;;;;21.25;12.25;;;;;;;25.11;65.49;100943.31;4982115;28;20144;-73
2021/07/25 09:12:53;;;;;;;22.65;11.00;;;;;;;25.94;62.49;100950.25;4982453;28;20074;-73
2021/07/25 09:15:22;;;;;;;18.38;10.25;;;;;;;26.86;58.99;100945.94;4983166;28;20292;-73
2021/07/25 09:20:43;;;;;;;16.83;9.25;;;;;;;25.41;59.25;100955.19;4980630;28;20062;-73
2021/07/25 09:23:14;;;;;;;16.08;9.38;;;;;;;25.69;59.06;100949.84;4983637;28;20093;-73
2021/07/25 09:25:46;;;;;;;16.60;8.90;;;;;;;25.39;60.96;100948.13;4981822;28;20214;-72
2021/07/25 09:28:23;;;;;;;16.77;9.63;;;;;;;25.52;59.93;100945.97;4979914;28;20065;-72
2021/07/25 09:30:51;;;;;;;17.75;9.32;;;;;;;26.01;60.44;100952.28;4984385;28;20097;-73
2021/07/25 09:33:31;;;;;;;19.98;11.48;;;;;;;25.46;59.58;100952.03;4979147;28;20139;-72
2021/07/25 09:36:08;;;;;;;20.00;11.27;;;;;;;25.45;59.25;100958.47;4984652;28;20153;-73
2021/07/25 09:38:37;;;;;;;18.58;10.40;;;;;;;24.70;59.81;100956.13;4979315;28;20077;-73
2021/07/25 09:41:20;;;;;;;18.00;10.05;;;;;;;26.13;57.19;100954.84;4983232;28;20062;-73
2021/07/25 09:44:02;;;;;;;15.93;9.45;;;;;;;26.38;54.13;100958.81;4982810;28;20093;-73
2021/07/25 09:46:42;;;;;;;14.63;7.10;;;;;;;25.43;54.03;100950.44;4979893;28;20350;-73
2021/07/25 09:49:10;;;;;;;14.45;7.07;;;;;;;25.97;53.51;100952.75;4984739;28;20068;-73
2021/07/25 09:51:38;;;;;;;8.95;4.85;;;;;;;25.41;51.33;100957.06;4978615;28;20089;-73
2021/07/25 09:54:05;;;;;;;12.93;6.15;;;;;;;26.02;52.61;100951.28;4982434;28;20062;-73
2021/07/25 09:56:34;;;;;;;13.63;6.93;;;;;;;26.82;51.46;100956.34;4982129;28;20371;-70
2021/07/25 09:59:03;;;;;;;12.82;7.03;;;;;;;26.03;52.98;100950.28;4978506;28;20065;-71
2021/07/25 10:01:35;;;;;;;14.02;8.50;;;;;;;26.05;53.69;100959.19;4982247;28;20065;-70
2021/07/25 10:04:12;;;;;;;16.80;9.55;;;;;;;27.07;51.63;100953.88;4980999;28;20076;-70
2021/07/25 10:06:43;;;;;;;17.90;10.18;;;;;;;27.87;51.64;100952.13;4983174;28;20050;-70
2021/07/25 10:09:12;;;;;;;24.73;16.45;;;;;;;26.99;53.75;100960.13;4982716;28;20065;-70
2021/07/25 10:11:46;;;;;;;26.70;17.95;;;;;;;26.28;56.44;100953.38;4982598;28;20054;-70
2021/07/25 10:14:16;;;;;;;25.55;17.73;;;;;;;25.98;56.47;100949.81;4982506;28;20050;-70
2021/07/25 10:16:45;;;;;;;26.20;15.90;;;;;;;26.49;54.76;100941.34;4980907;28;20074;-72
2021/07/25 10:19:15;;;;;;;22.17;14.30;;;;;;;26.83;52.28;100939.78;4982650;28;20065;-72
2021/07/25 10:21:44;;;;;;;18.70;12.25;;;;;;;27.64;51.36;100932.56;4980288;28;20097;-72
2021/07/25 10:24:13;;;;;;;22.52;12.85;;;;;;;27.33;50.38;100930.22;4979552;28;20050;-73
2021/07/25 10:26:44;;;;;;;20.73;10.70;;;;;;;26.37;51.55;100944.25;4983121;28;20090;-72
2021/07/25 10:29:12;;;;;;;17.85;10.13;;;;;;;26.09;52.95;100943.34;4979692;28;20469;-72
2021/07/25 10:31:43;;;;;;;15.90;8.35;;;;;;;26.63;53.14;100946.38;4979417;28;20093;-72
2021/07/25 10:34:12;;;;;;;15.70;9.25;;;;;;;26.01;52.52;100945.94;4982992;28;20155;-73
2021/07/25 10:36:41;;;;;;;14.70;8.25;;;;;;;26.48;51.25;100943.22;4979887;28;20149;-74
2021/07/25 10:39:09;;;;;;;14.23;6.88;;;;;;;27.08;50.59;100940.03;4984303;28;20073;-74
2021/07/25 10:41:37;;;;;;;12.07;7.35;;;;;;;26.83;50.75;100941.63;4980490;28;20428;-72
2021/07/25 10:44:07;;;;;;;14.27;8.13;;;;;;;26.24;51.42;100946.47;4981753;28;20112;-74
2021/07/25 10:46:38;;;;;;;12.47;8.20;;;;;;;26.74;51.50;100948.03;4980801;28;20058;-74
2021/07/25 10:49:12;;;;;;;10.93;8.40;;;;;;;26.50;51.56;100949.41;4981388;28;20062;-74
2021/07/25 10:51:57;;;;;;;15.23;11.43;;;;;;;27.01;50.13;100944.41;4985303;28;20066;-75
2021/07/25 10:54:35;;;;;;;14.05;9.80;;;;;;;27.04;49.12;100952.31;4978277;28;20073;-71
2021/07/25 10:57:06;;;;;;;17.23;10.65;;;;;;;26.60;50.29;100958.41;4981490;28;20118;-71
2021/07/25 10:59:39;;;;;;;15.23;10.40;;;;;;;26.76;50.59;100955.06;4977933;28;20261;-72
2021/07/25 11:02:12;;;;;;;15.68;10.30;;;;;;;26.65;50.50;100950.66;4975659;28;20097;-73
2021/07/25 11:05:06;;;;;;;18.27;13.02;;;;;;;26.28;51.96;100956.94;4983477;28;20066;-72
2021/07/25 11:07:36;;;;;;;15.38;12.38;;;;;;;26.65;50.89;100947.91;4979999;28;20193;-72
2021/07/25 11:10:06;;;;;;;26.20;16.25;;;;;;;26.72;53.38;100948.16;4983931;28;20058;-72
2021/07/25 11:13:17;;;;;;;27.35;18.45;;;;;;;26.40;54.22;100948.56;4980165;28;20055;-72
2021/07/25 11:15:47;;;;;;;27.33;17.58;;;;;;;26.94;52.30;100949.63;4983277;28;20104;-73
2021/07/25 11:18:34;;;;;;;29.33;16.80;;;;;;;26.67;53.19;100942.28;4984264;28;20543;-72